Time;durP1;ratioP1;P1;durP2;ratioP2;P2;SDS_P1;SDS_P2;PMS_P1;PMS_P2;Temp;Humidity;BMP_temperature;BMP_pressure;BME280_temperature;BME280_humidity;BME280_pressure;Samples;Min_cycle;Max_cycle;Signal;HPM_P1;HPM_P2
2022/03/25 00:01:01;;;;;;;30.13;13.60;;;5.60;70.90;;;;;;5269218;27;21477;-71
2022/03/25 00:03:33;;;;;;;26.47;13.90;;;5.60;70.90;;;;;;5240740;27;20578;-71
2022/03/25 00:06:06;;;;;;;28.35;13.38;;;5.50;70.90;;;;;;5257223;27;20528;-72
2022/03/25 00:08:39;;;;;;;31.03;13.73;;;5.50;71.00;;;;;;5264566;27;20043;-71
2022/03/25 00:11:11;;;;;;;25.10;14.30;;;5.40;71.20;;;;;;5265605;27;20044;-71
2022/03/25 00:13:44;;;;;;;29.30;14.77;;;5.40;71.10;;;;;;5248297;28;20040;-71
2022/03/25 00:16:17;;;;;;;27.15;13.25;;;5.40;71.40;;;;;;5255020;27;20043;-71
2022/03/25 00:18:49;;;;;;;24.13;13.27;;;5.30;71.60;;;;;;5269463;27;20176;-73
2022/03/25 00:21:22;;;;;;;31.25;15.18;;;5.30;71.80;;;;;;5271549;27;20168;-72
2022/03/25 00:23:54;;;;;;;25.33;12.65;;;5.30;71.70;;;;;;5266091;27;20055;-71
2022/03/25 00:26:27;;;;;;;26.23;13.02;;;5.30;72.30;;;;;;5267872;27;20055;-71
2022/03/25 00:29:02;;;;;;;29.63;13.85;;;5.10;71.80;;;;;;5267315;27;20047;-72
2022/03/25 00:31:34;;;;;;;25.42;13.23;;;5.10;72.10;;;;;;5241906;27;20048;-71
2022/03/25 00:34:08;;;;;;;27.48;12.32;;;5.00;72.20;;;;;;5232670;27;20054;-71
2022/03/25 00:36:42;;;;;;;25.38;13.23;;;5.10;72.20;;;;;;5245961;27;20043;-71
2022/03/25 00:39:14;;;;;;;27.02;13.20;;;5.10;72.10;;;;;;5234597;27;20527;-72
2022/03/25 00:41:47;;;;;;;26.08;12.90;;;5.10;71.80;;;;;;5257110;27;20402;-72
2022/03/25 00:44:20;;;;;;;22.45;12.55;;;5.20;71.70;;;;;;5246415;27;20052;-72
2022/03/25 00:46:53;;;;;;;25.20;12.65;;;5.20;71.70;;;;;;5250768;27;20047;-71
2022/03/25 00:49:26;;;;;;;29.27;13.63;;;5.20;71.80;;;;;;5248835;27;20055;-71
2022/03/25 00:51:58;;;;;;;24.30;13.80;;;5.10;72.00;;;;;;5269289;27;21318;-71
2022/03/25 00:54:31;;;;;;;24.27;13.43;;;5.10;71.90;;;;;;5259204;27;20415;-73
2022/03/25 00:57:03;;;;;;;25.33;14.45;;;5.00;72.20;;;;;;5269848;27;20050;-71
2022/03/25 00:59:36;;;;;;;28.65;14.18;;;4.90;72.30;;;;;;5243805;27;20112;-72
2022/03/25 01:02:09;;;;;;;28.15;13.52;;;4.80;72.80;;;;;;5261715;27;20043;-72
2022/03/25 01:04:42;;;;;;;30.93;13.33;;;4.80;73.00;;;;;;5245454;27;20059;-72
2022/03/25 01:07:14;;;;;;;29.25;13.75;;;4.80;73.00;;;;;;5262739;27;20289;-71
2022/03/25 01:09:47;;;;;;;23.95;13.00;;;4.70;73.20;;;;;;5263018;27;20047;-71
2022/03/25 01:12:21;;;;;;;24.50;13.32;;;4.60;73.40;;;;;;5252000;28;20047;-72
2022/03/25 01:14:53;;;;;;;26.95;14.65;;;4.60;73.70;;;;;;5234054;27;20702;-72
2022/03/25 01:17:27;;;;;;;23.50;12.90;;;4.50;73.80;;;;;;5263211;27;20445;-72
2022/03/25 01:20:00;;;;;;;;;;;4.60;73.90;;;;;;5242303;27;20048;-71
2022/03/25 01:22:32;;;;;;;24.58;13.55;;;4.40;75.70;;;;;;5262606;27;19939;-72
2022/03/25 01:25:08;;;;;;;24.20;12.95;;;4.40;73.90;;;;;;5249481;27;20052;-71
2022/03/25 01:27:40;;;;;;;27.38;14.13;;;4.50;73.80;;;;;;5265512;27;20047;-71
2022/03/25 01:30:13;;;;;;;28.98;13.63;;;4.60;73.70;;;;;;5244463;28;20051;-71
2022/03/25 01:32:46;;;;;;;25.25;13.02;;;4.50;73.60;;;;;;5268006;27;20046;-71
2022/03/25 01:35:24;;;;;;;22.35;12.85;;;4.50;73.50;;;;;;5245048;27;20043;-71
2022/03/25 01:37:57;;;;;;;23.77;12.45;;;4.40;73.70;;;;;;5249995;28;20036;-71
2022/03/25 01:40:32;;;;;;;24.25;12.90;;;4.40;73.80;;;;;;5253617;28;20051;-72
2022/03/25 01:43:06;;;;;;;25.85;12.73;;;4.40;74.10;;;;;;5267037;27;20067;-71
2022/03/25 01:45:39;;;;;;;22.83;13.32;;;4.40;73.90;;;;;;5241951;27;20948;-71
2022/03/25 01:48:14;;;;;;;22.55;12.20;;;4.30;74.10;;;;;;5246885;28;20054;-72
2022/03/25 01:50:48;;;;;;;25.48;13.27;;;4.30;74.20;;;;;;5246573;27;20353;-71
2022/03/25 01:53:25;;;;;;;;;;;4.30;74.30;;;;;;5263737;27;20043;-71
2022/03/25 01:56:01;;;;;;;20.50;11.85;;;4.20;76.00;;;;;;5265955;27;20363;-72
2022/03/25 01:58:33;;;;;;;22.60;12.18;;;4.20;74.20;;;;;;5242929;28;20038;-71
2022/03/25 02:01:06;;;;;;;22.20;13.48;;;4.10;74.40;;;;;;5265044;27;20063;-71
2022/03/25 02:03:39;;;;;;;24.42;14.40;;;4.10;74.70;;;;;;5271823;27;20047;-71
2022/03/25 02:06:12;;;;;;;27.75;13.73;;;4.00;75.10;;;;;;5240763;27;20043;-71
2022/03/25 02:08:44;;;;;;;25.95;13.63;;;4.00;75.20;;;;;;5234069;28;20635;-71
2022/03/25 02:11:18;;;;;;;32.25;14.20;;;3.90;75.20;;;;;;5268947;27;20450;-71
2022/03/25 02:13:50;;;;;;;;;;;3.90;75.10;;;;;;5252438;27;20580;-71
2022/03/25 02:16:38;;;;;;;26.00;13.23;;;3.80;77.10;;;;;;5265404;27;19954;-71
2022/03/25 02:19:12;;;;;;;27.23;13.88;;;3.80;75.50;;;;;;5264209;27;20044;-71
2022/03/25 02:21:47;;;;;;;30.70;14.85;;;3.80;75.20;;;;;;5265651;27;20055;-71
2022/03/25 02:24:22;;;;;;;30.55;14.63;;;3.80;75.40;;;;;;5244543;28;20046;-71
2022/03/25 02:26:57;;;;;;;32.33;14.38;;;3.70;75.40;;;;;;5234580;28;20054;-72
2022/03/25 02:29:30;;;;;;;32.17;14.13;;;3.70;75.90;;;;;;5264269;28;20040;-71
2022/03/25 02:32:03;;;;;;;27.05;13.40;;;3.60;76.30;;;;;;5263556;28;20070;-71
2022/03/25 02:34:37;;;;;;;25.65;14.40;;;3.60;76.40;;;;;;5248493;28;20048;-71
2022/03/25 02:37:10;;;;;;;25.73;13.75;;;3.70;76.20;;;;;;5198944;28;21075;-71
2022/03/25 02:39:42;;;;;;;30.75;15.50;;;3.70;76.10;;;;;;5259627;27;20035;-71
2022/03/25 02:42:15;;;;;;;28.63;14.43;;;3.70;76.00;;;;;;5240049;27;20495;-72
2022/03/25 02:44:48;;;;;;;26.88;15.45;;;3.60;76.40;;;;;;5268772;27;20040;-71
2022/03/25 02:47:21;;;;;;;24.27;14.13;;;3.50;76.50;;;;;;5255119;27;20055;-72
2022/03/25 02:49:53;;;;;;;27.80;14.20;;;3.50;76.90;;;;;;5253745;27;20466;-72
2022/03/25 02:52:26;;;;;;;25.98;15.15;;;3.40;77.10;;;;;;5270875;27;20055;-72
2022/03/25 02:54:58;;;;;;;29.95;15.10;;;3.40;77.20;;;;;;5269684;27;20145;-72
2022/03/25 02:57:30;;;;;;;23.90;13.77;;;3.30;77.20;;;;;;5270588;27;20047;-72
2022/03/25 03:00:09;;;;;;;26.45;13.73;;;3.40;77.30;;;;;;5268363;27;20047;-72
2022/03/25 03:02:42;;;;;;;26.50;13.32;;;3.40;77.10;;;;;;5254802;27;20040;-72
2022/03/25 03:05:17;;;;;;;;;;;3.50;76.90;;;;;;5252129;27;20047;-71
2022/03/25 03:07:50;;;;;;;25.20;13.48;;;3.40;78.70;;;;;;5257067;27;19934;-71
2022/03/25 03:10:23;;;;;;;25.88;13.10;;;3.40;76.50;;;;;;5268699;27;20047;-71
2022/03/25 03:12:56;;;;;;;26.05;13.93;;;3.40;76.70;;;;;;5271875;27;20046;-72
2022/03/25 03:15:28;;;;;;;26.55;13.75;;;3.40;76.50;;;;;;5268692;27;20391;-71
2022/03/25 03:18:01;;;;;;;27.88;14.05;;;3.40;76.90;;;;;;5256148;28;20048;-72
2022/03/25 03:20:34;;;;;;;24.42;13.77;;;3.30;77.40;;;;;;5248635;28;20687;-72
2022/03/25 03:23:07;;;;;;;26.48;13.77;;;3.30;77.20;;;;;;5268577;27;20475;-72
2022/03/25 03:25:40;;;;;;;23.05;13.50;;;3.40;76.90;;;;;;5275689;27;20938;-72
2022/03/25 03:28:13;;;;;;;24.77;14.10;;;3.40;76.80;;;;;;5250464;27;20051;-72
2022/03/25 03:30:46;;;;;;;26.38;14.18;;;3.30;77.10;;;;;;5275600;27;20051;-72
2022/03/25 03:33:19;;;;;;;33.65;13.50;;;3.40;77.30;;;;;;5271734;27;20051;-72
2022/03/25 03:35:51;;;;;;;26.83;13.82;;;3.30;77.10;;;;;;5264057;27;20036;-72
2022/03/25 03:38:24;;;;;;;28.92;13.30;;;3.20;77.30;;;;;;5273088;27;20692;-71
2022/03/25 03:40:56;;;;;;;30.17;14.40;;;3.30;77.40;;;;;;5248641;28;20596;-72
2022/03/25 03:43:29;;;;;;;26.60;14.35;;;3.30;77.40;;;;;;5263643;27;20055;-72
2022/03/25 03:46:03;;;;;;;26.08;12.85;;;3.30;77.30;;;;;;5273575;27;20043;-72
2022/03/25 03:48:36;;;;;;;25.35;14.02;;;3.20;77.60;;;;;;5238696;27;20114;-72
2022/03/25 03:51:09;;;;;;;29.63;13.95;;;3.10;78.20;;;;;;5277492;27;20043;-72
2022/03/25 03:53:41;;;;;;;24.10;13.93;;;3.00;77.80;;;;;;5273174;27;20043;-72
2022/03/25 03:56:13;;;;;;;26.10;13.25;;;3.00;78.10;;;;;;5280909;27;20066;-72
2022/03/25 03:58:46;;;;;;;24.35;13.65;;;3.00;78.30;;;;;;5260440;27;20044;-72
2022/03/25 04:01:19;;;;;;;24.25;13.82;;;3.00;78.30;;;;;;5253960;27;20040;-72
2022/03/25 04:03:51;;;;;;;26.53;12.80;;;2.90;78.80;;;;;;5268723;27;20427;-71
2022/03/25 04:06:25;;;;;;;30.75;14.25;;;2.90;78.60;;;;;;5274718;27;20285;-70
2022/03/25 04:08:58;;;;;;;24.80;13.68;;;2.90;78.50;;;;;;5267247;27;21208;-71
2022/03/25 04:11:30;;;;;;;25.50;13.23;;;3.00;78.50;;;;;;5241337;27;20657;-72
2022/03/25 04:14:03;;;;;;;23.58;12.60;;;3.00;78.20;;;;;;5266352;27;20057;-71
2022/03/25 04:16:41;;;;;;;24.92;12.90;;;3.10;78.10;;;;;;5238839;27;20494;-71
2022/03/25 04:19:14;;;;;;;23.17;13.23;;;3.00;78.20;;;;;;5251412;27;20046;-72
2022/03/25 04:21:47;;;;;;;23.80;12.95;;;3.00;78.30;;;;;;5253326;27;20058;-70
2022/03/25 04:24:19;;;;;;;23.77;13.25;;;2.90;78.30;;;;;;5262213;27;21191;-72
2022/03/25 04:26:51;;;;;;;24.23;13.63;;;2.90;78.50;;;;;;5239346;28;20047;-72
2022/03/25 04:29:24;;;;;;;24.42;13.18;;;2.90;78.70;;;;;;5248498;27;20058;-71
2022/03/25 04:31:57;;;;;;;26.70;13.38;;;2.80;78.90;;;;;;5271646;27;20503;-72
2022/03/25 04:34:29;;;;;;;28.30;14.07;;;2.80;78.90;;;;;;5271256;27;20075;-71
2022/03/25 04:37:02;;;;;;;24.42;13.57;;;2.80;79.00;;;;;;5270921;27;20043;-73
2022/03/25 04:39:35;;;;;;;25.52;13.80;;;2.70;79.40;;;;;;5255160;27;20040;-71
2022/03/25 04:42:07;;;;;;;21.98;13.35;;;2.60;79.90;;;;;;5222520;28;21275;-71
2022/03/25 04:44:40;;;;;;;26.30;13.10;;;2.50;80.40;;;;;;5237743;27;20043;-72
2022/03/25 04:47:12;;;;;;;32.42;14.95;;;2.60;80.10;;;;;;5215634;27;20418;-71
2022/03/25 04:49:45;;;;;;;28.35;13.82;;;2.50;80.00;;;;;;5247614;27;20054;-71
2022/03/25 04:52:17;;;;;;;26.63;13.30;;;2.50;80.20;;;;;;5250234;27;20047;-71
2022/03/25 04:54:50;;;;;;;26.13;14.05;;;2.50;80.50;;;;;;5259079;27;20047;-71
2022/03/25 04:57:23;;;;;;;23.52;13.23;;;2.60;80.60;;;;;;5264488;27;20043;-72
2022/03/25 04:59:56;;;;;;;27.92;13.90;;;2.60;80.30;;;;;;5264874;27;20434;-71
2022/03/25 05:02:28;;;;;;;28.40;13.90;;;2.70;80.10;;;;;;5249012;27;20044;-72
2022/03/25 05:05:02;;;;;;;26.50;14.45;;;2.60;80.20;;;;;;5257401;27;20479;-71
2022/03/25 05:07:35;;;;;;;26.83;13.52;;;2.60;80.60;;;;;;5261612;27;20039;-71
2022/03/25 05:10:08;;;;;;;23.53;13.40;;;2.60;80.60;;;;;;5253468;27;20433;-72
2022/03/25 05:12:41;;;;;;;28.15;13.77;;;2.60;80.50;;;;;;5237932;28;20402;-71
2022/03/25 05:15:14;;;;;;;29.48;13.65;;;2.60;80.40;;;;;;5235274;28;20058;-71
2022/03/25 05:17:53;;;;;;;27.52;13.25;;;2.50;80.60;;;;;;5226932;28;20483;-70
2022/03/25 05:20:26;;;;;;;30.42;14.60;;;2.60;80.90;;;;;;5264548;27;20043;-71
2022/03/25 05:22:58;;;;;;;29.73;14.00;;;2.50;80.80;;;;;;5243524;27;20117;-72
2022/03/25 05:25:31;;;;;;;23.85;13.98;;;2.50;81.30;;;;;;5258338;27;20043;-71
2022/03/25 05:28:04;;;;;;;28.38;13.73;;;2.40;81.40;;;;;;5251701;27;20039;-71
2022/03/25 05:30:36;;;;;;;25.20;13.93;;;2.50;81.20;;;;;;5235969;27;20063;-72
2022/03/25 05:33:09;;;;;;;24.73;12.98;;;2.50;81.00;;;;;;5265119;27;20039;-72
2022/03/25 05:35:42;;;;;;;26.33;13.30;;;2.50;80.80;;;;;;5234702;28;20406;-72
2022/03/25 05:38:14;;;;;;;28.65;14.30;;;2.50;80.80;;;;;;5262763;28;20040;-72
2022/03/25 05:40:48;;;;;;;29.05;14.55;;;2.50;80.80;;;;;;5230610;28;20047;-72
2022/03/25 05:43:20;;;;;;;29.92;14.00;;;2.50;81.40;;;;;;5255003;28;20063;-71
2022/03/25 05:45:53;;;;;;;25.88;13.60;;;2.40;81.90;;;;;;5222206;28;20055;-71
2022/03/25 05:48:25;;;;;;;24.98;13.30;;;2.40;82.00;;;;;;5223817;28;20066;-72
2022/03/25 05:50:58;;;;;;;25.08;12.95;;;2.60;81.80;;;;;;5238400;28;20051;-71
2022/03/25 05:53:30;;;;;;;25.23;13.63;;;2.70;81.40;;;;;;5238182;28;20926;-71
2022/03/25 05:56:05;;;;;;;25.30;12.38;;;2.80;80.90;;;;;;5261398;28;20059;-71
2022/03/25 05:58:38;;;;;;;29.27;14.73;;;2.90;80.60;;;;;;5258140;27;20043;-72
2022/03/25 06:01:11;;;;;;;27.45;12.73;;;3.00;80.40;;;;;;5243585;28;20554;-71
2022/03/25 06:03:44;;;;;;;28.15;13.45;;;3.00;80.40;;;;;;5244596;27;20058;-72
2022/03/25 06:06:17;;;;;;;29.90;13.15;;;3.10;80.60;;;;;;5203236;28;20067;-71
2022/03/25 06:08:54;;;;;;;29.23;13.00;;;3.20;80.60;;;;;;5230171;28;20052;-71
2022/03/25 06:11:27;;;;;;;28.13;12.52;;;3.30;80.20;;;;;;5226134;28;21459;-72
2022/03/25 06:13:59;;;;;;;26.63;13.77;;;3.40;80.30;;;;;;5243569;27;21004;-72
2022/03/25 06:16:32;;;;;;;27.85;13.20;;;3.50;80.20;;;;;;5239673;28;20048;-72
2022/03/25 06:19:05;;;;;;;29.07;13.27;;;3.50;80.20;;;;;;5211671;28;20040;-72
2022/03/25 06:21:38;;;;;;;33.47;13.70;;;3.70;80.60;;;;;;5230176;28;21250;-72
2022/03/25 06:24:10;;;;;;;30.13;12.27;;;3.80;80.60;;;;;;5236142;28;20316;-72
2022/03/25 06:26:43;;;;;;;26.92;11.77;;;3.90;79.90;;;;;;5241831;28;20051;-71
2022/03/25 06:29:15;;;;;;;27.50;12.80;;;4.10;79.10;;;;;;5217997;28;20043;-72
2022/03/25 06:31:48;;;;;;;29.05;13.13;;;4.30;78.70;;;;;;5224995;28;20040;-72
2022/03/25 06:34:21;;;;;;;28.93;13.17;;;4.40;78.70;;;;;;5227833;28;20062;-72
2022/03/25 06:36:54;;;;;;;;;;;4.50;78.50;;;;;;5233091;28;20050;-72
2022/03/25 06:39:27;;;;;;;26.17;11.68;;;4.60;80.40;;;;;;5210648;28;20397;-72
2022/03/25 06:41:59;;;;;;;27.52;13.48;;;4.70;77.60;;;;;;5223952;28;20040;-72
2022/03/25 06:44:32;;;;;;;31.77;12.60;;;5.00;77.20;;;;;;5235054;28;20046;-72
2022/03/25 06:47:04;;;;;;;28.07;12.17;;;5.10;76.90;;;;;;5222196;28;20078;-71
2022/03/25 06:49:37;;;;;;;24.85;13.05;;;5.30;76.80;;;;;;5237684;28;20044;-72
2022/03/25 06:52:13;;;;;;;26.08;12.32;;;5.50;76.60;;;;;;5238219;28;20054;-72
2022/03/25 06:54:46;;;;;;;29.47;12.20;;;5.70;76.00;;;;;;5233760;28;20043;-71
2022/03/25 06:57:19;;;;;;;24.63;12.23;;;5.90;75.30;;;;;;5200641;28;20732;-71
2022/03/25 06:59:52;;;;;;;26.63;11.45;;;6.00;75.00;;;;;;5247736;28;20040;-71
2022/03/25 07:02:24;;;;;;;21.60;12.05;;;6.20;74.40;;;;;;5251342;28;20044;-72
2022/03/25 07:04:58;;;;;;;30.35;11.52;;;6.40;74.70;;;;;;5239788;28;20542;-71
2022/03/25 07:07:31;;;;;;;21.67;11.73;;;6.60;73.70;;;;;;5268812;28;20047;-72
2022/03/25 07:10:05;;;;;;;24.25;12.00;;;6.80;73.00;;;;;;5270687;28;20039;-73
2022/03/25 07:12:38;;;;;;;;;;;7.10;72.10;;;;;;5252805;28;20054;-72
2022/03/25 07:15:11;;;;;;;24.35;11.30;;;7.20;72.30;;;;;;5268121;28;19924;-72
2022/03/25 07:17:43;;;;;;;24.67;11.47;;;7.40;70.90;;;;;;5267283;28;20038;-73
2022/03/25 07:20:17;;;;;;;21.05;12.23;;;7.60;70.40;;;;;;5264149;28;20514;-72
2022/03/25 07:22:51;;;;;;;30.15;12.13;;;7.70;69.90;;;;;;5269720;28;20051;-73
2022/03/25 07:25:25;;;;;;;24.20;12.45;;;7.90;69.40;;;;;;5234977;28;20058;-72
2022/03/25 07:27:58;;;;;;;22.65;11.98;;;8.00;69.30;;;;;;5269486;27;20052;-72
2022/03/25 07:30:30;;;;;;;23.13;10.73;;;8.20;68.20;;;;;;5265502;27;20051;-72
2022/03/25 07:33:03;;;;;;;32.08;11.88;;;8.40;68.10;;;;;;5253109;27;20046;-73
2022/03/25 07:35:36;;;;;;;25.05;11.05;;;8.50;67.60;;;;;;5267126;27;20050;-73
2022/03/25 07:38:08;;;;;;;23.50;12.40;;;8.60;67.00;;;;;;5267627;27;20055;-70
2022/03/25 07:40:41;;;;;;;23.10;12.23;;;8.80;66.60;;;;;;5274773;27;20511;-72
2022/03/25 07:43:13;;;;;;;22.00;11.23;;;8.90;66.10;;;;;;5268998;27;20043;-72
2022/03/25 07:45:46;;;;;;;22.07;12.10;;;9.10;66.00;;;;;;5273933;27;20048;-72
2022/03/25 07:48:19;;;;;;;22.55;10.32;;;9.30;65.90;;;;;;5268814;27;20540;-72
2022/03/25 07:50:51;;;;;;;21.70;11.05;;;9.50;65.20;;;;;;5269974;27;20598;-72
2022/03/25 07:53:24;;;;;;;24.05;12.07;;;9.60;64.40;;;;;;5254242;27;20046;-72
2022/03/25 07:55:56;;;;;;;26.10;12.20;;;9.80;63.80;;;;;;5270116;27;20035;-72
2022/03/25 07:58:28;;;;;;;25.80;12.02;;;9.90;63.30;;;;;;5251891;28;20434;-72
2022/03/25 08:01:01;;;;;;;24.98;13.10;;;10.10;63.30;;;;;;5263743;27;20074;-72
2022/03/25 08:03:34;;;;;;;26.20;13.35;;;10.20;63.10;;;;;;5255113;28;20039;-71
2022/03/25 08:06:09;;;;;;;22.33;13.30;;;10.30;62.20;;;;;;5232198;27;20055;-72
2022/03/25 08:08:41;;;;;;;25.45;14.25;;;10.30;61.50;;;;;;5272791;27;20044;-71
2022/03/25 08:11:14;;;;;;;25.25;12.23;;;10.40;61.40;;;;;;5248603;28;20402;-71
2022/03/25 08:13:47;;;;;;;25.57;14.37;;;10.50;61.60;;;;;;5255780;27;20055;-71
2022/03/25 08:16:20;;;;;;;22.98;13.80;;;10.60;61.20;;;;;;5265839;27;20942;-71
2022/03/25 08:18:53;;;;;;;27.75;14.77;;;10.70;60.10;;;;;;5265155;27;20048;-72
2022/03/25 08:21:25;;;;;;;27.23;14.50;;;10.90;59.60;;;;;;5270591;27;20054;-71
2022/03/25 08:29:47;;;;;;;41.50;17.42;;;11.20;58.10;;;;;;5236033;28;20048;-72
2022/03/25 08:32:20;;;;;;;30.35;15.68;;;11.20;57.40;;;;;;5268807;27;20054;-72
2022/03/25 08:34:52;;;;;;;34.47;17.20;;;11.30;57.20;;;;;;5272528;27;20059;-72
2022/03/25 08:37:33;;;;;;;27.92;15.80;;;11.30;56.90;;;;;;5258182;27;20059;-72
2022/03/25 08:40:06;;;;;;;35.53;16.20;;;11.40;57.00;;;;;;5263907;27;20110;-72
2022/03/25 08:42:43;;;;;;;34.83;17.88;;;11.40;56.90;;;;;;5275034;27;20051;-72
2022/03/25 08:45:16;;;;;;;33.42;18.35;;;11.50;56.90;;;;;;5272106;27;20046;-73
2022/03/25 08:47:49;;;;;;;37.17;18.63;;;11.60;56.30;;;;;;5216195;27;20067;-72
2022/03/25 08:50:22;;;;;;;33.70;16.95;;;11.60;55.80;;;;;;5248572;28;20050;-72
2022/03/25 08:52:56;;;;;;;36.55;18.73;;;11.60;55.80;;;;;;5255255;28;20070;-73
2022/03/25 08:55:28;;;;;;;42.13;20.53;;;11.70;55.90;;;;;;5217714;28;20062;-73
2022/03/25 08:58:01;;;;;;;35.30;18.05;;;11.80;56.00;;;;;;5253595;28;20744;-70
2022/03/25 09:00:34;;;;;;;36.30;20.10;;;11.90;55.40;;;;;;5249110;28;20067;-72
2022/03/25 09:03:06;;;;;;;39.67;18.67;;;11.90;54.70;;;;;;5270488;27;20044;-71
2022/03/25 09:05:40;;;;;;;41.55;20.35;;;12.00;54.40;;;;;;5253185;27;20060;-72
2022/03/25 09:08:13;;;;;;;36.10;19.08;;;12.00;54.50;;;;;;5228323;28;20051;-71
2022/03/25 09:10:47;;;;;;;48.60;20.90;;;12.20;54.30;;;;;;5270428;27;20048;-71
2022/03/25 09:13:20;;;;;;;37.10;19.50;;;12.40;54.00;;;;;;5269735;27;20048;-72
2022/03/25 09:15:52;;;;;;;46.50;19.73;;;12.40;53.90;;;;;;5242870;28;20051;-72
2022/03/25 09:18:25;;;;;;;38.40;19.98;;;12.60;54.10;;;;;;5272308;27;20387;-72
2022/03/25 09:20:57;;;;;;;37.88;20.48;;;12.80;54.00;;;;;;5261857;28;20055;-72
2022/03/25 09:23:30;;;;;;;38.13;20.20;;;12.90;52.80;;;;;;5239884;27;20058;-72
2022/03/25 09:26:03;;;;;;;38.58;21.30;;;12.90;52.10;;;;;;5232389;27;20047;-72
2022/03/25 09:28:35;;;;;;;47.63;22.13;;;13.00;51.70;;;;;;5265034;27;20090;-72
2022/03/25 09:31:08;;;;;;;50.72;21.95;;;12.90;52.60;;;;;;5250233;28;20310;-73
2022/03/25 09:33:40;;;;;;;36.70;19.90;;;13.10;52.10;;;;;;5240343;27;20051;-73
2022/03/25 09:36:14;;;;;;;49.70;20.77;;;13.10;51.80;;;;;;5232531;28;20059;-73
2022/03/25 09:38:47;;;;;;;40.50;21.60;;;13.20;51.40;;;;;;5254820;28;20043;-72
2022/03/25 09:41:19;;;;;;;46.65;22.55;;;13.30;50.80;;;;;;5265102;27;20279;-73
2022/03/25 09:43:52;;;;;;;44.05;23.08;;;13.30;50.50;;;;;;5237102;28;20054;-73
2022/03/25 09:46:25;;;;;;;45.65;21.52;;;13.50;50.60;;;;;;5268381;27;20423;-72
2022/03/25 09:48:58;;;;;;;44.65;22.00;;;13.60;51.00;;;;;;5252318;27;20039;-73
2022/03/25 09:51:32;;;;;;;52.20;20.88;;;13.70;50.80;;;;;;5244691;27;20070;-72
2022/03/25 09:54:06;;;;;;;51.60;23.83;;;13.90;49.70;;;;;;5255262;28;20055;-72
2022/03/25 09:56:40;;;;;;;;;;;14.00;49.20;;;;;;5235790;28;20039;-72
2022/03/25 09:59:19;;;;;;;39.83;21.25;;;14.10;48.70;;;;;;5258090;28;19924;-72
2022/03/25 10:01:52;;;;;;;42.05;22.13;;;14.10;49.60;;;;;;5261541;28;20678;-72
2022/03/25 10:04:37;;;;;;;44.33;22.13;;;14.20;48.60;;;;;;5252087;27;20036;-72
2022/03/25 10:07:23;;;;;;;41.88;22.48;;;14.20;48.30;;;;;;5269419;27;20293;-72
2022/03/25 10:10:08;;;;;;;38.50;21.20;;;14.30;48.00;;;;;;5262171;28;20051;-72
2022/03/25 10:12:43;;;;;;;38.95;21.58;;;14.30;47.80;;;;;;5267195;28;20054;-71
2022/03/25 10:15:21;;;;;;;43.78;22.23;;;14.40;48.20;;;;;;5254903;27;20039;-71
2022/03/25 10:18:01;;;;;;;44.67;23.80;;;14.50;47.40;;;;;;5261467;28;20048;-72
2022/03/25 10:20:42;;;;;;;38.08;21.83;;;14.60;47.50;;;;;;5242272;28;20055;-72
2022/03/25 10:23:18;;;;;;;47.25;22.23;;;14.70;47.00;;;;;;5251460;28;20040;-72
2022/03/25 10:25:56;;;;;;;44.97;22.83;;;14.70;46.50;;;;;;5242456;28;20750;-73
2022/03/25 10:28:40;;;;;;;42.05;22.27;;;14.80;46.30;;;;;;5240100;28;20055;-71
2022/03/25 10:31:15;;;;;;;38.53;20.13;;;14.90;46.60;;;;;;5256216;28;20051;-72
2022/03/25 10:34:03;;;;;;;45.97;24.15;;;15.00;46.80;;;;;;5232663;28;20047;-71
2022/03/25 10:36:35;;;;;;;37.97;22.42;;;15.20;46.30;;;;;;5245954;28;20043;-72
2022/03/25 10:39:16;;;;;;;43.97;23.77;;;15.30;45.80;;;;;;5241198;28;21022;-71
2022/03/25 10:41:50;;;;;;;44.90;22.75;;;15.40;46.00;;;;;;5256031;28;20673;-73
2022/03/25 10:44:38;;;;;;;48.20;22.67;;;15.60;45.80;;;;;;5264855;28;20069;-72
2022/03/25 10:47:20;;;;;;;42.47;23.05;;;15.70;44.60;;;;;;5264510;28;20047;-72
2022/03/25 10:49:54;;;;;;;38.22;21.65;;;15.70;44.30;;;;;;5242175;28;20043;-72
2022/03/25 10:52:31;;;;;;;;;;;15.80;45.40;;;;;;5263952;28;20043;-72
2022/03/25 10:55:23;;;;;;;42.95;21.83;;;15.90;44.60;;;;;;5231353;28;19938;-71
2022/03/25 10:58:01;;;;;;;41.45;22.63;;;16.00;44.50;;;;;;5269388;28;20700;-72
2022/03/25 11:00:34;;;;;;;43.75;24.88;;;16.10;45.00;;;;;;5267049;28;20044;-72
2022/03/25 11:03:08;;;;;;;41.90;23.20;;;16.10;44.20;;;;;;5244114;28;20059;-73
2022/03/25 11:05:45;;;;;;;45.88;24.25;;;16.20;44.10;;;;;;5237927;28;20316;-72
2022/03/25 11:08:17;;;;;;;41.05;22.17;;;16.30;43.60;;;;;;5247675;28;20056;-72
2022/03/25 11:10:58;;;;;;;45.15;23.33;;;16.40;44.00;;;;;;5261009;27;20051;-72
2022/03/25 11:13:31;;;;;;;41.90;23.83;;;16.50;43.60;;;;;;5247308;28;20059;-72
2022/03/25 11:16:08;;;;;;;41.70;22.07;;;16.70;43.90;;;;;;5267457;27;21075;-71
2022/03/25 11:18:42;;;;;;;39.92;22.08;;;16.80;43.90;;;;;;5258866;28;20044;-72
2022/03/25 11:21:15;;;;;;;49.50;25.13;;;16.90;43.40;;;;;;5260914;27;20047;-72
2022/03/25 11:23:52;;;;;;;41.42;23.83;;;17.00;43.30;;;;;;5258500;27;20043;-73
2022/03/25 11:26:28;;;;;;;46.38;23.30;;;17.30;44.00;;;;;;5259437;27;20055;-71
2022/03/25 11:29:02;;;;;;;43.83;23.42;;;17.50;43.40;;;;;;5271748;27;20551;-72
2022/03/25 11:32:03;;;;;;;40.42;21.27;;;17.60;42.50;;;;;;5262277;27;20527;-72
2022/03/25 11:34:47;;;;;;;44.50;23.05;;;17.80;40.50;;;;;;5236198;27;20639;-72
2022/03/25 11:37:25;;;;;;;42.63;23.40;;;18.20;40.90;;;;;;5254693;27;20043;-72
2022/03/25 11:40:14;;;;;;;40.35;23.58;;;18.60;40.60;;;;;;5271749;27;20067;-72
2022/03/25 11:42:57;;;;;;;42.20;24.67;;;19.20;38.10;;;;;;5259080;27;20044;-71
2022/03/25 11:45:34;;;;;;;45.40;24.45;;;19.50;40.10;;;;;;5264867;27;20545;-71
2022/03/25 11:48:07;;;;;;;41.63;23.60;;;20.10;39.50;;;;;;5261340;27;20036;-71
2022/03/25 11:50:41;;;;;;;;;;;20.60;39.10;;;;;;5260715;27;20490;-71
2022/03/25 11:53:13;;;;;;;39.72;22.25;;;20.80;37.20;;;;;;5241800;28;19924;-70
2022/03/25 11:55:52;;;;;;;40.42;23.05;;;21.20;38.00;;;;;;5263195;28;20040;-71
2022/03/25 11:58:48;;;;;;;43.80;23.65;;;21.30;36.10;;;;;;5253547;28;20040;-70
2022/03/25 12:01:22;;;;;;;37.35;22.48;;;21.50;37.40;;;;;;5238077;27;20059;-71
2022/03/25 12:03:57;;;;;;;41.22;21.83;;;22.00;36.50;;;;;;5248722;27;20058;-71
2022/03/25 12:06:50;;;;;;;37.25;21.25;;;22.40;35.00;;;;;;5270610;27;20519;-71
2022/03/25 12:09:33;;;;;;;35.90;23.95;;;22.50;34.80;;;;;;5269738;27;21108;-71
2022/03/25 12:12:06;;;;;;;36.83;23.33;;;22.80;33.00;;;;;;5261857;27;20074;-71
2022/03/25 12:15:07;;;;;;;36.28;22.25;;;22.60;34.30;;;;;;5266782;27;20043;-72
2022/03/25 12:17:40;;;;;;;35.80;22.00;;;22.70;32.20;;;;;;5230413;28;20048;-72
2022/03/25 12:20:12;;;;;;;43.13;23.35;;;22.90;34.20;;;;;;5258374;27;20773;-72
2022/03/25 12:22:45;;;;;;;37.05;22.60;;;23.20;34.10;;;;;;5231848;28;20050;-72
2022/03/25 12:25:21;;;;;;;37.33;21.83;;;23.30;33.60;;;;;;5266925;27;20098;-71
2022/03/25 12:27:54;;;;;;;39.78;24.30;;;23.30;33.80;;;;;;5267997;27;20058;-71
2022/03/25 12:30:34;;;;;;;;;;;23.50;34.20;;;;;;5252449;27;20728;-71
2022/03/25 12:33:08;;;;;;;35.38;22.48;;;23.70;32.50;;;;;;5256034;27;19927;-70
2022/03/25 12:35:41;;;;;;;39.78;23.48;;;24.00;33.20;;;;;;5271157;27;20055;-71
2022/03/25 12:38:24;;;;;;;38.47;23.50;;;24.00;32.90;;;;;;5254605;28;20059;-71
2022/03/25 12:40:57;;;;;;;36.65;22.25;;;24.30;32.80;;;;;;5264322;27;20055;-70
2022/03/25 12:43:59;;;;;;;42.65;22.92;;;24.40;32.20;;;;;;5244472;27;20044;-71
2022/03/25 12:46:32;;;;;;;37.08;22.50;;;24.20;31.80;;;;;;5245411;28;20039;-71
2022/03/25 12:49:06;;;;;;;34.80;22.73;;;24.30;32.60;;;;;;5262919;28;20028;-71
2022/03/25 12:51:39;;;;;;;36.08;23.20;;;24.80;32.30;;;;;;5263114;28;20047;-72
2022/03/25 12:54:16;;;;;;;34.22;21.85;;;25.10;32.10;;;;;;5255071;27;20348;-72
2022/03/25 12:56:56;;;;;;;34.75;21.85;;;25.40;31.20;;;;;;5247499;28;20066;-72
2022/03/25 12:59:55;;;;;;;36.05;22.05;;;25.40;29.90;;;;;;5255180;28;20535;-71
2022/03/25 13:02:33;;;;;;;33.92;21.45;;;25.20;29.80;;;;;;5233233;28;20495;-72
2022/03/25 13:05:16;;;;;;;35.45;21.98;;;24.80;30.70;;;;;;5266718;27;20047;-71
2022/03/25 13:07:53;;;;;;;34.38;22.35;;;24.60;30.60;;;;;;5264418;27;20048;-72
2022/03/25 13:10:28;;;;;;;36.85;22.92;;;24.80;31.00;;;;;;5264492;27;20059;-71
2022/03/25 13:13:07;;;;;;;34.83;22.70;;;24.90;30.80;;;;;;5258121;27;20055;-71
2022/03/25 13:15:42;;;;;;;34.08;21.90;;;25.30;30.80;;;;;;5226429;28;20463;-72
2022/03/25 13:18:19;;;;;;;37.30;24.10;;;25.30;30.70;;;;;;5258181;27;20052;-73